createdAt,value
2018-07-24T08:52:51.512Z,25.67
2018-07-24T08:55:23.197Z,25.69
2018-07-24T08:57:54.175Z,25.67
2018-07-24T09:00:25.580Z,25.69
2018-07-24T09:02:56.986Z,25.69
2018-07-24T09:05:28.328Z,25.71
2018-07-24T09:07:59.687Z,25.72
2018-07-24T09:10:31.015Z,25.73
2018-07-24T09:13:02.356Z,25.79
2018-07-24T09:15:33.751Z,25.80
2018-07-24T09:18:05.025Z,25.92
2018-07-24T09:20:37.931Z,25.88
2018-07-24T09:23:09.376Z,25.85
2018-07-24T09:25:40.767Z,25.86
2018-07-24T09:28:12.098Z,25.89
2018-07-24T09:30:43.444Z,26.04
2018-07-24T09:33:14.767Z,26.01
2018-07-24T09:35:46.113Z,26.00
2018-07-24T09:38:17.508Z,25.99
2018-07-24T09:40:49.019Z,25.95
2018-07-24T09:43:20.419Z,25.97
2018-07-24T09:45:51.820Z,26.01
2018-07-24T09:48:23.159Z,26.06
2018-07-24T09:50:54.519Z,26.05
2018-07-24T09:53:25.881Z,26.07
2018-07-24T09:55:57.480Z,26.05
2018-07-24T09:58:28.864Z,26.06
2018-07-24T10:01:05.480Z,26.11
2018-07-24T10:03:36.924Z,26.09
2018-07-24T10:06:09.000Z,26.11
2018-07-24T10:08:40.303Z,26.07
2018-07-24T10:11:11.716Z,26.08
2018-07-24T10:13:43.108Z,26.12
2018-07-24T10:16:14.470Z,26.13
2018-07-24T10:18:45.791Z,26.09
2018-07-24T10:21:17.185Z,26.05
2018-07-24T10:23:48.671Z,26.07
2018-07-24T10:26:19.984Z,26.11
2018-07-24T10:28:51.250Z,26.11
2018-07-24T10:31:22.548Z,26.09
2018-07-24T10:33:53.931Z,26.06
2018-07-24T10:36:25.369Z,26.08
2018-07-24T10:38:56.683Z,26.13
2018-07-24T10:41:28.084Z,26.15
2018-07-24T10:43:59.488Z,26.14
2018-07-24T10:46:30.880Z,26.13
2018-07-24T10:49:02.328Z,26.14
2018-07-24T10:51:33.720Z,26.13
2018-07-24T10:54:05.003Z,26.14
2018-07-24T10:56:36.400Z,26.15
2018-07-24T10:59:08.069Z,26.14
2018-07-24T11:01:39.540Z,26.15
2018-07-24T11:04:10.924Z,26.18
2018-07-24T11:06:42.359Z,26.17
2018-07-24T11:09:13.755Z,26.21
2018-07-24T11:11:45.088Z,26.18
2018-07-24T11:14:16.402Z,26.23
2018-07-24T11:16:47.796Z,26.24
2018-07-24T11:19:19.089Z,26.24
2018-07-24T11:21:50.623Z,26.28
2018-07-24T11:24:22.007Z,26.31
2018-07-24T11:26:53.467Z,26.28
2018-07-24T11:29:25.262Z,26.32
2018-07-24T11:31:56.656Z,26.36
2018-07-24T11:34:28.013Z,26.37
2018-07-24T11:36:59.449Z,26.35
2018-07-24T11:39:30.943Z,26.32
2018-07-24T11:42:02.359Z,26.27
2018-07-24T11:44:33.725Z,26.31
2018-07-24T11:47:05.096Z,26.35
2018-07-24T11:49:36.383Z,26.34
2018-07-24T11:52:07.824Z,26.34
2018-07-24T11:54:39.149Z,26.33
2018-07-24T11:57:10.556Z,26.32
2018-07-24T11:59:41.960Z,26.34
2018-07-24T12:02:13.308Z,26.37
2018-07-24T12:04:44.831Z,26.37
2018-07-24T12:07:16.816Z,26.38
2018-07-24T12:09:48.754Z,26.37
2018-07-24T12:12:20.696Z,26.40
2018-07-24T12:14:52.684Z,26.41
2018-07-24T12:17:23.960Z,26.44
2018-07-24T12:19:55.271Z,26.43
2018-07-24T12:22:26.710Z,26.46
2018-07-24T12:24:58.176Z,26.50
2018-07-24T12:27:29.633Z,26.48
2018-07-24T12:30:01.173Z,26.52
2018-07-24T13:36:37.960Z,26.63
2018-07-24T13:39:12.355Z,26.64
2018-07-24T13:41:43.640Z,26.57
2018-07-24T13:44:14.979Z,26.53
2018-07-24T13:46:46.313Z,26.56
2018-07-24T13:49:17.664Z,26.52
2018-07-24T13:51:49.121Z,26.53
2018-07-24T13:54:20.573Z,26.54
2018-07-24T13:56:52.088Z,26.52
2018-07-24T13:59:23.764Z,26.50
2018-07-24T14:01:55.862Z,26.56
2018-07-24T14:04:27.500Z,26.56
2018-07-24T14:06:58.936Z,26.56
2018-07-24T14:09:30.574Z,26.54
2018-07-24T14:12:01.832Z,26.55
2018-07-24T14:14:33.828Z,26.51
2018-07-24T14:17:05.152Z,26.46
2018-07-24T14:19:36.534Z,26.44
2018-07-24T14:22:07.908Z,26.44
2018-07-24T14:24:39.311Z,26.48
2018-07-24T14:27:10.953Z,26.50
2018-07-24T14:29:43.852Z,26.46
2018-07-24T14:32:15.295Z,26.42
2018-07-24T14:34:46.657Z,26.44
2018-07-24T14:37:18.129Z,26.37
2018-07-24T14:39:49.555Z,26.43
2018-07-24T14:42:21.098Z,26.46
2018-07-24T14:44:52.779Z,26.49
2018-07-24T14:47:24.367Z,26.47
2018-07-24T14:49:55.865Z,26.49
2018-07-24T14:52:27.291Z,26.53
2018-07-24T14:54:58.931Z,26.54
2018-07-24T14:57:31.175Z,26.53
2018-07-24T15:00:02.830Z,26.53
2018-07-24T15:02:34.247Z,26.53
2018-07-24T15:05:05.779Z,26.52
2018-07-24T15:07:37.348Z,26.52
2018-07-24T15:10:09.422Z,26.44
2018-07-24T15:12:41.035Z,26.42
2018-07-24T15:15:12.658Z,26.40
2018-07-24T15:17:44.208Z,26.45
2018-07-24T15:20:15.842Z,26.49
2018-07-24T15:22:47.116Z,26.49
2018-07-24T15:25:18.512Z,26.51
2018-07-24T15:27:49.901Z,26.56
2018-07-24T15:31:24.584Z,26.57
2018-07-24T15:33:55.857Z,26.56
2018-07-24T15:36:27.226Z,26.57
2018-07-24T15:38:58.764Z,26.55
2018-07-24T15:41:30.172Z,26.57
2018-07-24T15:44:01.509Z,26.57
2018-07-24T15:46:32.928Z,26.61
2018-07-24T15:49:04.352Z,26.60
2018-07-24T15:51:35.880Z,26.61
